createdAt,value
2019-02-27T00:01:20.987Z,74.16
2019-02-27T00:06:22.741Z,75.95
2019-02-27T00:11:24.300Z,75.77
2019-02-27T00:16:26.000Z,76.67
2019-02-27T00:21:27.711Z,76.68
2019-02-27T00:26:29.329Z,76.40
2019-02-27T00:31:31.086Z,76.76
2019-02-27T00:36:32.739Z,76.61
2019-02-27T00:41:34.402Z,77.01
2019-02-27T00:46:35.955Z,77.16
2019-02-27T00:51:37.545Z,76.86
2019-02-27T00:56:39.093Z,76.43
2019-02-27T01:01:40.648Z,76.39
2019-02-27T01:06:42.218Z,76.39
2019-02-27T01:11:43.763Z,76.27
2019-02-27T01:16:47.660Z,76.39
2019-02-27T01:21:48.824Z,76.60
2019-02-27T01:26:50.449Z,76.12
2019-02-27T01:31:52.005Z,75.82
2019-02-27T01:36:54.899Z,75.43
2019-02-27T01:41:57.932Z,76.48
2019-02-27T01:47:02.387Z,77.23
2019-02-27T01:52:03.674Z,77.11
2019-02-27T01:57:05.228Z,76.59
2019-02-27T02:02:06.811Z,76.79
2019-02-27T02:07:08.764Z,77.06
2019-02-27T02:12:15.309Z,77.23
2019-02-27T02:18:02.136Z,76.72
2019-02-27T02:23:41.744Z,76.97
2019-02-27T02:29:05.271Z,76.76
2019-02-27T02:34:30.496Z,75.65
2019-02-27T02:39:56.592Z,76.08
2019-02-27T02:45:18.507Z,75.89
2019-02-27T02:50:43.944Z,76.65
2019-02-27T02:56:12.397Z,76.56
2019-02-27T03:01:22.503Z,76.53
2019-02-27T03:06:41.501Z,76.48
2019-02-27T03:12:29.896Z,76.81
2019-02-27T03:18:08.884Z,77.08
2019-02-27T03:23:50.996Z,77.01
2019-02-27T03:29:03.801Z,76.53
2019-02-27T03:34:50.730Z,77.04
2019-02-27T03:39:59.178Z,77.21
2019-02-27T03:45:31.099Z,77.68
2019-02-27T03:50:49.532Z,77.17
2019-02-27T03:56:21.097Z,77.71
2019-02-27T04:01:46.219Z,77.47
2019-02-27T04:07:23.697Z,77.71
2019-02-27T04:12:25.292Z,77.51
2019-02-27T04:17:26.673Z,77.75
2019-02-27T04:22:28.261Z,78.03
2019-02-27T04:27:29.810Z,78.33
2019-02-27T04:32:31.415Z,78.04
2019-02-27T04:37:32.969Z,78.17
2019-02-27T04:42:34.515Z,77.42
2019-02-27T04:47:36.068Z,78.21
2019-02-27T04:52:37.851Z,77.93
2019-02-27T04:57:39.403Z,78.89
2019-02-27T05:02:41.063Z,78.63
2019-02-27T05:07:42.610Z,79.19
2019-02-27T05:12:47.847Z,79.67
2019-02-27T05:17:47.691Z,79.65
2019-02-27T05:22:49.242Z,79.49
2019-02-27T05:27:50.792Z,79.47
2019-02-27T05:32:52.436Z,79.84
2019-02-27T05:37:54.036Z,80.34
2019-02-27T05:42:55.588Z,80.28
2019-02-27T05:47:57.145Z,79.78
2019-02-27T05:52:58.743Z,80.42
2019-02-27T05:58:00.295Z,80.73
2019-02-27T06:03:01.958Z,79.83
2019-02-27T06:08:03.656Z,79.50
2019-02-27T06:13:05.265Z,79.39
2019-02-27T06:18:06.861Z,78.74
2019-02-27T06:23:08.417Z,77.19
2019-02-27T06:28:09.963Z,76.32
2019-02-27T06:33:12.382Z,75.63
2019-02-27T06:38:13.952Z,75.02
2019-02-27T06:43:15.644Z,74.04
2019-02-27T06:48:17.239Z,72.90
2019-02-27T06:53:18.817Z,72.46
2019-02-27T06:58:20.405Z,72.24
2019-02-27T07:03:21.965Z,72.56
2019-02-27T07:08:23.542Z,74.12
2019-02-27T07:13:26.792Z,75.44
2019-02-27T07:18:28.604Z,76.34
2019-02-27T07:23:30.216Z,76.77
2019-02-27T07:28:31.845Z,77.25
2019-02-27T07:33:33.460Z,78.03
2019-02-27T07:38:35.016Z,79.34
2019-02-27T07:43:36.575Z,79.65
2019-02-27T07:48:38.128Z,80.06
2019-02-27T07:53:39.675Z,80.49
2019-02-27T07:58:41.276Z,80.31
2019-02-27T08:03:45.589Z,80.40
2019-02-27T08:08:46.303Z,81.23
2019-02-27T08:13:47.884Z,80.93
2019-02-27T08:18:49.477Z,81.58
2019-02-27T08:23:51.022Z,82.01
2019-02-27T08:28:52.612Z,81.35
2019-02-27T08:33:54.237Z,80.57
2019-02-27T08:38:55.848Z,80.48
2019-02-27T08:43:57.454Z,80.25
2019-02-27T08:49:01.708Z,79.67
2019-02-27T08:54:03.468Z,79.53
2019-02-27T08:59:06.016Z,78.86
2019-02-27T09:04:11.558Z,77.32
2019-02-27T09:09:11.323Z,76.45
2019-02-27T09:14:12.930Z,75.99
2019-02-27T09:24:16.128Z,75.06
2019-02-27T09:29:18.626Z,74.10
2019-02-27T09:34:20.898Z,73.16
2019-02-27T09:39:22.636Z,69.98
2019-02-27T09:44:24.463Z,68.76
2019-02-27T09:49:26.014Z,67.60
2019-02-27T09:54:27.559Z,66.04
2019-02-27T09:59:30.320Z,65.27
2019-02-27T10:04:31.876Z,64.15
2019-02-27T10:09:34.871Z,62.22
2019-02-27T10:14:37.030Z,61.42
2019-02-27T10:19:38.616Z,59.76
2019-02-27T10:24:40.177Z,60.31
2019-02-27T10:29:41.724Z,61.23
2019-02-27T10:34:43.368Z,58.71
2019-02-27T10:39:44.930Z,57.31
2019-02-27T10:44:46.731Z,57.31
2019-02-27T10:49:48.548Z,56.36
2019-02-27T10:54:50.104Z,56.90
2019-02-27T10:59:51.644Z,55.85
2019-02-27T11:04:53.237Z,54.94
2019-02-27T11:09:54.881Z,53.52
2019-02-27T11:14:56.435Z,52.88
2019-02-27T11:19:58.139Z,52.71
2019-02-27T11:24:59.697Z,50.76
2019-02-27T11:30:03.068Z,51.16
2019-02-27T11:35:06.327Z,51.83
2019-02-27T11:40:20.780Z,52.27
2019-02-27T11:45:24.636Z,49.74
2019-02-27T11:50:25.936Z,48.80
2019-02-27T11:55:27.495Z,49.38
2019-02-27T12:00:29.889Z,47.85
2019-02-27T12:05:34.270Z,48.06
2019-02-27T12:10:34.998Z,48.41
2019-02-27T12:15:36.648Z,47.03
2019-02-27T12:20:38.240Z,46.20
2019-02-27T12:25:39.833Z,45.52
2019-02-27T12:30:42.529Z,46.39
2019-02-27T12:35:44.994Z,44.38
2019-02-27T12:40:46.676Z,45.13
2019-02-27T12:45:48.235Z,45.37
2019-02-27T12:50:49.828Z,44.63
2019-02-27T12:55:51.383Z,44.86
2019-02-27T13:00:52.941Z,45.24
2019-02-27T13:05:54.564Z,45.41
2019-02-27T13:10:56.116Z,43.92
2019-02-27T13:15:57.680Z,43.18
2019-02-27T13:20:59.279Z,43.15
2019-02-27T13:26:01.150Z,43.86
2019-02-27T13:31:03.186Z,43.65
2019-02-27T13:36:05.093Z,43.20
2019-02-27T13:41:07.769Z,43.47
2019-02-27T13:46:10.143Z,44.52
2019-02-27T13:51:12.099Z,44.19
2019-02-27T13:56:16.070Z,46.00
2019-02-27T14:01:17.112Z,44.03
2019-02-27T14:06:18.778Z,45.43
2019-02-27T14:11:20.335Z,44.62
2019-02-27T14:16:22.260Z,44.99
2019-02-27T14:21:23.928Z,44.10
2019-02-27T14:26:25.482Z,44.47
2019-02-27T14:31:27.273Z,43.79
2019-02-27T14:36:28.903Z,43.50
2019-02-27T14:41:30.487Z,43.61
2019-02-27T14:46:32.187Z,45.19
2019-02-27T14:51:33.836Z,44.55
2019-02-27T14:56:35.589Z,45.76
2019-02-27T15:01:37.142Z,45.33
2019-02-27T15:06:39.098Z,45.05
2019-02-27T15:11:40.650Z,45.95
2019-02-27T15:16:42.265Z,47.62
2019-02-27T15:21:46.544Z,48.69
2019-02-27T15:26:50.374Z,47.82
2019-02-27T15:31:52.260Z,48.50
2019-02-27T15:36:54.621Z,48.16
2019-02-27T15:41:56.581Z,48.96
2019-02-27T15:46:58.270Z,50.00
2019-02-27T15:52:00.029Z,50.62
2019-02-27T15:57:01.669Z,51.54
2019-02-27T16:02:03.670Z,51.87
2019-02-27T16:07:05.416Z,52.33
2019-02-27T16:12:07.063Z,52.89
2019-02-27T16:17:08.619Z,52.58
2019-02-27T16:22:10.323Z,52.98
2019-02-27T16:27:11.963Z,53.60
2019-02-27T16:32:14.043Z,54.52
2019-02-27T16:37:21.890Z,54.65
2019-02-27T16:42:19.230Z,54.97
2019-02-27T16:47:23.573Z,55.25
2019-02-27T16:52:24.249Z,55.26
2019-02-27T16:57:25.808Z,54.98
2019-02-27T17:02:27.347Z,55.39
2019-02-27T17:07:29.143Z,55.54
2019-02-27T17:12:30.701Z,55.79
2019-02-27T17:17:32.363Z,56.04
2019-02-27T17:22:34.001Z,55.86
2019-02-27T17:27:35.624Z,55.80
2019-02-27T17:32:37.216Z,55.68
2019-02-27T17:37:39.983Z,55.44
2019-02-27T17:42:42.289Z,55.08
2019-02-27T17:47:43.979Z,55.50
2019-02-27T17:52:48.669Z,55.47
2019-02-27T17:57:49.349Z,55.49
2019-02-27T18:02:52.036Z,55.99
2019-02-27T18:07:53.839Z,55.72
2019-02-27T18:12:55.397Z,55.43
2019-02-27T18:17:58.040Z,55.29
2019-02-27T18:22:59.690Z,54.10
2019-02-27T18:28:01.421Z,53.92
2019-02-27T18:33:03.281Z,53.02
2019-02-27T18:38:05.089Z,53.00
2019-02-27T18:43:06.686Z,51.87
2019-02-27T18:48:10.053Z,50.87
2019-02-27T18:53:13.351Z,50.28
2019-02-27T18:58:18.120Z,49.71
2019-02-27T19:03:18.709Z,49.04
2019-02-27T19:08:20.275Z,48.77
2019-02-27T19:13:21.880Z,48.32
2019-02-27T19:18:23.783Z,48.25
2019-02-27T19:23:26.592Z,47.42
2019-02-27T19:28:28.253Z,46.21
2019-02-27T19:33:32.550Z,45.43
2019-02-27T19:38:33.762Z,44.98
2019-02-27T19:43:35.337Z,45.37
2019-02-27T19:48:37.046Z,45.04
2019-02-27T19:53:41.265Z,44.41
2019-02-27T19:58:43.466Z,44.37
2019-02-27T20:03:45.135Z,44.48
2019-02-27T20:08:46.691Z,44.78
2019-02-27T20:13:48.245Z,45.76
2019-02-27T20:18:54.906Z,45.65
2019-02-27T20:23:53.474Z,45.68
2019-02-27T20:28:55.024Z,45.51
2019-02-27T20:33:56.599Z,45.65
2019-02-27T20:38:58.643Z,46.41
2019-02-27T20:44:02.991Z,46.02
2019-02-27T20:49:03.833Z,46.28
2019-02-27T20:54:06.887Z,46.15
2019-02-27T20:59:08.683Z,46.51
2019-02-27T21:04:12.157Z,45.87
2019-02-27T21:09:13.977Z,46.12
2019-02-27T21:14:17.042Z,46.30
2019-02-27T21:19:19.899Z,45.98
2019-02-27T21:24:23.392Z,46.40
2019-02-27T21:29:24.954Z,46.10
2019-02-27T21:34:26.706Z,45.94
2019-02-27T21:39:28.641Z,45.90
2019-02-27T21:44:32.255Z,45.62
2019-02-27T21:49:34.046Z,45.54
2019-02-27T21:54:39.341Z,45.73
2019-02-27T21:59:40.624Z,45.44
2019-02-27T22:04:44.100Z,45.26
2019-02-27T22:09:45.787Z,45.32
2019-02-27T22:14:48.608Z,45.25
2019-02-27T22:19:53.827Z,45.20
2019-02-27T22:24:55.614Z,45.56
2019-02-27T22:30:00.525Z,45.00
2019-02-27T22:35:04.121Z,45.17
2019-02-27T22:40:11.243Z,45.01
2019-02-27T22:45:16.127Z,44.57
2019-02-27T22:50:20.574Z,44.41
2019-02-27T22:55:22.164Z,44.42
2019-02-27T23:00:52.022Z,43.85
2019-02-27T23:05:55.800Z,43.84
2019-02-27T23:10:57.973Z,43.54
2019-02-27T23:15:59.635Z,43.42
2019-02-27T23:21:01.405Z,43.47
2019-02-27T23:26:04.333Z,43.89
2019-02-27T23:31:05.875Z,43.61
2019-02-27T23:36:07.430Z,43.75
2019-02-27T23:41:09.087Z,43.99
2019-02-27T23:46:10.733Z,43.77
2019-02-27T23:51:15.790Z,43.87
2019-02-27T23:56:19.284Z,43.80
